Time;durP1;ratioP1;P1;durP2;ratioP2;P2;SDS_P1;SDS_P2;PMS_P1;PMS_P2;Temp;Humidity;BMP_temperature;BMP_pressure;BME280_temperature;BME280_humidity;BME280_pressure;Samples;Min_cycle;Max_cycle;Signal;HPM_P1;HPM_P2
2021/10/03 00:01:00;;;;;;;5.43;5.03;;;17.00;46.00;;;;;;5053389;28;20468;-85
2021/10/03 00:03:27;;;;;;;6.30;5.80;;;16.90;46.20;;;;;;5053220;28;20751;-85
2021/10/03 00:05:55;;;;;;;8.53;5.87;;;16.90;46.70;;;;;;5053389;28;20472;-86
2021/10/03 00:08:21;;;;;;;5.70;5.20;;;16.90;46.50;;;;;;5052928;28;20433;-86
2021/10/03 00:10:48;;;;;;;5.80;5.20;;;16.80;46.70;;;;;;5053484;28;20418;-83
2021/10/03 00:13:14;;;;;;;8.57;6.20;;;16.80;47.20;;;;;;5053240;28;20430;-86
2021/10/03 00:15:40;;;;;;;6.67;6.07;;;16.80;46.80;;;;;;5053226;28;20422;-87
2021/10/03 00:18:07;;;;;;;6.00;5.53;;;16.80;47.20;;;;;;5052675;28;20926;-86
2021/10/03 00:20:34;;;;;;;6.50;5.40;;;16.70;47.50;;;;;;5053324;28;20183;-85
2021/10/03 00:23:00;;;;;;;5.80;5.40;;;16.70;47.50;;;;;;5053293;28;20411;-80
2021/10/03 00:25:26;;;;;;;5.83;5.23;;;16.60;47.80;;;;;;5052867;28;20407;-81
2021/10/03 00:27:54;;;;;;;6.20;5.70;;;16.60;47.40;;;;;;5052692;28;20245;-81
2021/10/03 00:30:21;;;;;;;6.40;5.90;;;16.70;47.50;;;;;;5052727;28;20458;-81
2021/10/03 00:32:46;;;;;;;5.80;5.30;;;16.70;47.50;;;;;;5052519;28;20418;-81
2021/10/03 00:35:12;;;;;;;6.37;5.77;;;16.70;47.50;;;;;;5052841;28;20417;-81
2021/10/03 00:37:39;;;;;;;6.43;5.93;;;16.60;47.40;;;;;;5052422;28;20263;-81
2021/10/03 00:40:06;;;;;;;5.87;5.37;;;16.60;47.60;;;;;;5052844;28;20199;-81
2021/10/03 00:42:31;;;;;;;6.00;5.30;;;16.60;47.40;;;;;;5052568;28;20414;-81
2021/10/03 00:44:57;;;;;;;5.90;5.43;;;16.50;48.20;;;;;;5053165;28;20441;-81
2021/10/03 00:47:23;;;;;;;6.30;5.70;;;16.50;48.10;;;;;;5052443;28;20267;-81
2021/10/03 00:49:48;;;;;;;5.20;4.70;;;16.40;48.20;;;;;;5052459;28;20567;-81
2021/10/03 00:52:14;;;;;;;6.03;5.37;;;16.40;48.40;;;;;;5053995;28;20168;-81
2021/10/03 00:54:40;;;;;;;6.10;5.50;;;16.40;48.50;;;;;;5052198;28;20414;-82
2021/10/03 00:57:06;;;;;;;6.17;5.77;;;16.40;48.70;;;;;;5052112;28;20647;-81
2021/10/03 00:59:33;;;;;;;6.23;5.73;;;16.40;49.00;;;;;;5052217;28;20964;-81
2021/10/03 01:02:00;;;;;;;7.00;6.50;;;16.40;49.30;;;;;;5052091;28;20183;-81
2021/10/03 01:04:26;;;;;;;5.83;5.43;;;16.40;49.40;;;;;;5035701;28;20427;-82
2021/10/03 01:06:52;;;;;;;5.90;5.43;;;16.40;49.00;;;;;;5051891;28;20467;-82
2021/10/03 01:09:19;;;;;;;6.13;5.73;;;16.40;49.00;;;;;;5052038;28;20202;-82
2021/10/03 01:11:45;;;;;;;6.27;5.77;;;16.40;49.10;;;;;;5051882;28;20657;-82
2021/10/03 01:14:11;;;;;;;6.23;5.73;;;16.40;49.30;;;;;;5051999;28;20415;-81
2021/10/03 01:16:37;;;;;;;6.43;6.03;;;16.40;49.40;;;;;;5051622;28;20415;-81
2021/10/03 01:19:04;;;;;;;6.57;6.03;;;16.40;49.50;;;;;;5051897;28;20440;-82
2021/10/03 01:21:30;;;;;;;7.40;6.70;;;16.40;50.40;;;;;;5051859;28;20419;-82
2021/10/03 01:23:57;;;;;;;7.23;6.53;;;16.30;49.80;;;;;;5051740;28;20418;-81
2021/10/03 01:26:23;;;;;;;8.80;8.00;;;16.30;49.40;;;;;;5052904;28;20411;-81
2021/10/03 01:28:53;;;;;;;7.00;6.40;;;16.40;49.50;;;;;;5051610;28;20553;-81
2021/10/03 01:31:22;;;;;;;6.40;6.00;;;16.40;49.00;;;;;;5051639;28;20826;-81
2021/10/03 01:33:48;;;;;;;6.60;6.00;;;16.40;49.20;;;;;;5051499;28;20527;-81
2021/10/03 01:36:13;;;;;;;6.97;6.37;;;16.40;49.70;;;;;;5051624;28;20415;-82
2021/10/03 01:38:39;;;;;;;8.27;7.47;;;16.40;49.90;;;;;;5051191;28;20204;-81
2021/10/03 01:41:05;;;;;;;7.53;6.83;;;16.40;50.10;;;;;;5051505;28;20178;-82
2021/10/03 01:43:31;;;;;;;7.00;6.50;;;16.40;50.10;;;;;;5051103;28;20415;-81
2021/10/03 01:45:57;;;;;;;6.90;6.30;;;16.40;50.30;;;;;;5051498;28;20410;-81
2021/10/03 01:48:24;;;;;;;8.60;7.90;;;16.40;50.20;;;;;;5051110;28;20176;-82
2021/10/03 01:51:02;;;;;;;9.03;7.27;;;16.40;50.60;;;;;;5051197;28;20731;-81
2021/10/03 01:53:34;;;;;;;7.93;6.87;;;16.40;50.90;;;;;;5051241;28;20417;-82
2021/10/03 01:56:01;;;;;;;8.17;7.33;;;16.30;50.80;;;;;;5051102;28;20414;-82
2021/10/03 01:58:30;;;;;;;8.00;7.40;;;16.30;51.00;;;;;;5050800;28;20426;-81
2021/10/03 02:01:00;;;;;;;9.63;8.73;;;16.40;51.10;;;;;;5051162;28;20640;-81
2021/10/03 02:03:26;;;;;;;8.33;7.70;;;16.40;51.10;;;;;;5050994;28;20418;-82
2021/10/03 02:05:52;;;;;;;8.30;7.50;;;16.40;50.20;;;;;;5050380;28;20426;-81
2021/10/03 02:08:18;;;;;;;7.73;7.13;;;16.30;50.10;;;;;;5050714;28;20175;-82
2021/10/03 02:10:51;;;;;;;8.20;7.50;;;16.30;49.60;;;;;;5050839;28;20817;-82
2021/10/03 02:13:19;;;;;;;7.30;6.70;;;16.40;49.40;;;;;;5050943;28;20179;-81
2021/10/03 02:15:47;;;;;;;6.20;5.70;;;16.30;48.90;;;;;;5050936;28;20421;-82
2021/10/03 02:18:15;;;;;;;6.43;5.77;;;16.40;48.80;;;;;;5050643;28;20406;-83
2021/10/03 02:20:42;;;;;;;5.93;5.53;;;16.40;48.20;;;;;;5050883;28;20419;-82
2021/10/03 02:23:10;;;;;;;6.60;6.00;;;16.40;48.10;;;;;;5050789;28;20421;-81
2021/10/03 02:25:43;;;;;;;5.23;4.83;;;16.50;47.30;;;;;;5052170;28;20749;-81
2021/10/03 02:28:15;;;;;;;5.27;4.87;;;16.60;46.40;;;;;;5050420;28;20996;-81
2021/10/03 02:30:42;;;;;;;6.43;5.87;;;16.70;46.40;;;;;;5050748;28;20465;-81
2021/10/03 02:33:07;;;;;;;6.03;5.60;;;16.70;44.80;;;;;;5050896;28;20418;-81
2021/10/03 02:35:33;;;;;;;4.67;4.37;;;16.80;45.00;;;;;;5051885;28;20406;-81
2021/10/03 02:37:59;;;;;;;6.13;5.73;;;16.80;44.80;;;;;;5050497;28;20168;-82
2021/10/03 02:40:25;;;;;;;5.33;4.83;;;16.80;44.80;;;;;;5050722;28;20186;-81
2021/10/03 02:42:51;;;;;;;6.30;5.80;;;16.80;45.20;;;;;;5050530;28;20418;-82
2021/10/03 02:45:16;;;;;;;5.77;5.17;;;16.80;44.80;;;;;;5050705;28;20183;-82
2021/10/03 02:47:42;;;;;;;4.77;4.40;;;16.80;44.50;;;;;;5050346;28;20313;-82
2021/10/03 02:50:08;;;;;;;5.40;5.00;;;16.90;44.40;;;;;;5050456;28;20195;-82
2021/10/03 02:52:34;;;;;;;5.30;4.90;;;16.90;44.20;;;;;;5050511;28;20406;-82
2021/10/03 02:55:00;;;;;;;6.13;5.70;;;16.90;44.30;;;;;;5050556;28;20787;-82
2021/10/03 02:57:26;;;;;;;5.27;4.77;;;16.90;44.00;;;;;;5050280;28;20442;-82
2021/10/03 02:59:51;;;;;;;5.87;5.27;;;16.90;44.30;;;;;;5050529;28;20200;-82
2021/10/03 03:02:17;;;;;;;5.53;5.13;;;16.90;43.30;;;;;;5050431;28;20636;-82
2021/10/03 03:04:43;;;;;;;5.70;5.30;;;16.90;43.80;;;;;;5050313;28;20184;-82
2021/10/03 03:07:08;;;;;;;6.90;5.17;;;16.90;43.20;;;;;;5050170;28;20270;-82
2021/10/03 03:09:34;;;;;;;4.90;4.60;;;16.80;44.10;;;;;;5050372;28;20208;-82
2021/10/03 03:11:59;;;;;;;5.07;4.70;;;16.80;43.90;;;;;;5050296;28;20234;-82
2021/10/03 03:14:25;;;;;;;6.50;5.97;;;16.80;43.90;;;;;;5050412;28;20187;-82
2021/10/03 03:16:52;;;;;;;4.97;4.63;;;16.80;44.40;;;;;;5050124;28;20266;-82
2021/10/03 03:19:18;;;;;;;5.80;4.70;;;16.70;43.90;;;;;;5054012;28;20611;-81
2021/10/03 03:21:45;;;;;;;5.23;4.83;;;16.80;43.40;;;;;;5054079;28;20411;-81
2021/10/03 03:24:11;;;;;;;5.93;5.33;;;16.80;43.40;;;;;;5054012;28;20423;-81
2021/10/03 03:26:38;;;;;;;4.90;4.43;;;16.80;43.20;;;;;;5053699;28;20794;-83
2021/10/03 03:29:04;;;;;;;5.23;4.83;;;16.80;42.90;;;;;;5053853;28;20458;-82
2021/10/03 03:31:30;;;;;;;5.30;4.90;;;16.80;43.40;;;;;;5055249;28;20771;-82
2021/10/03 03:33:57;;;;;;;5.77;5.13;;;16.70;43.00;;;;;;5053683;28;20418;-82
2021/10/03 03:36:23;;;;;;;5.17;4.77;;;16.80;43.10;;;;;;5053974;28;20640;-82
2021/10/03 03:38:49;;;;;;;5.00;4.67;;;16.70;42.90;;;;;;5053594;28;20410;-82
2021/10/03 03:41:18;;;;;;;5.30;4.90;;;16.70;42.40;;;;;;5053775;28;20764;-82
2021/10/03 03:43:44;;;;;;;5.37;4.70;;;16.80;42.10;;;;;;5051963;28;20604;-82
2021/10/03 03:46:10;;;;;;;6.37;4.67;;;16.80;42.30;;;;;;5052519;28;20509;-81
2021/10/03 03:48:36;;;;;;;4.60;4.30;;;16.80;42.80;;;;;;5052762;28;20190;-81
2021/10/03 03:51:03;;;;;;;5.33;4.93;;;16.70;41.60;;;;;;5070646;28;20931;-81
2021/10/03 03:53:30;;;;;;;5.10;4.70;;;16.80;41.20;;;;;;5070549;28;20530;-81
2021/10/03 03:55:56;;;;;;;5.20;4.80;;;16.80;41.60;;;;;;5070533;28;20464;-82
2021/10/03 03:58:21;;;;;;;4.50;4.20;;;16.90;40.50;;;;;;5070305;28;20809;-81
2021/10/03 04:00:47;;;;;;;4.90;4.50;;;16.90;41.10;;;;;;5070379;28;20184;-81
2021/10/03 04:03:13;;;;;;;5.23;4.17;;;16.90;40.90;;;;;;5070172;28;20221;-81
2021/10/03 04:05:39;;;;;;;5.07;4.67;;;16.90;39.90;;;;;;5055021;28;20186;-81
2021/10/03 04:08:08;;;;;;;4.97;4.57;;;16.90;39.40;;;;;;5069999;28;20184;-81
2021/10/03 04:10:34;;;;;;;8.13;4.97;;;16.90;40.30;;;;;;5070127;28;20454;-82
2021/10/03 04:13:00;;;;;;;4.40;4.00;;;17.00;39.00;;;;;;5070068;28;20411;-81
2021/10/03 04:15:25;;;;;;;4.93;4.57;;;17.00;39.20;;;;;;5070103;28;20414;-82
2021/10/03 04:17:51;;;;;;;7.03;4.23;;;17.00;38.80;;;;;;5069651;28;20183;-82
2021/10/03 04:20:16;;;;;;;4.60;4.30;;;17.00;38.50;;;;;;5070067;28;20259;-82
2021/10/03 04:22:42;;;;;;;4.50;4.20;;;17.00;38.20;;;;;;5069971;28;20180;-82
2021/10/03 04:25:08;;;;;;;9.37;4.80;;;17.00;38.20;;;;;;5069942;28;20172;-81
2021/10/03 04:27:34;;;;;;;6.03;4.07;;;17.10;36.90;;;;;;5069524;28;20195;-82
2021/10/03 04:30:00;;;;;;;4.80;4.40;;;17.10;37.20;;;;;;5069556;28;20995;-82
2021/10/03 04:32:25;;;;;;;4.63;4.33;;;17.20;36.80;;;;;;5069647;28;20188;-82
2021/10/03 04:34:52;;;;;;;4.50;4.10;;;17.20;37.20;;;;;;5066294;28;20407;-81
2021/10/03 04:37:18;;;;;;;4.33;4.03;;;17.20;37.60;;;;;;5051278;28;20199;-82
2021/10/03 04:39:44;;;;;;;4.73;4.03;;;17.10;37.10;;;;;;5052598;28;20501;-82
2021/10/03 04:42:09;;;;;;;3.77;3.53;;;17.20;37.60;;;;;;5052714;28;20172;-82
2021/10/03 04:44:35;;;;;;;3.67;3.47;;;17.20;37.00;;;;;;5052257;28;20431;-79
2021/10/03 04:47:00;;;;;;;4.60;4.20;;;17.20;36.70;;;;;;5051782;28;20230;-80
2021/10/03 04:49:26;;;;;;;4.70;4.30;;;17.20;36.20;;;;;;5052237;28;20214;-79
2021/10/03 04:51:52;;;;;;;3.70;3.50;;;17.20;35.70;;;;;;5052598;28;20204;-81
2021/10/03 04:54:18;;;;;;;4.33;3.90;;;17.20;36.00;;;;;;5052431;28;20172;-81
2021/10/03 04:56:44;;;;;;;3.90;3.60;;;17.20;36.90;;;;;;5052193;28;20177;-81
2021/10/03 04:59:09;;;;;;;4.60;4.20;;;17.30;35.30;;;;;;5041497;28;20419;-81
2021/10/03 05:01:35;;;;;;;4.03;3.73;;;17.40;34.50;;;;;;5043800;28;20360;-81
2021/10/03 05:04:01;;;;;;;4.50;4.10;;;17.40;34.10;;;;;;5052451;28;20187;-81
2021/10/03 05:06:26;;;;;;;4.13;3.80;;;17.30;35.10;;;;;;5053361;28;20198;-81
2021/10/03 05:08:53;;;;;;;4.03;3.70;;;17.30;35.30;;;;;;5051677;28;20238;-81
2021/10/03 05:11:19;;;;;;;4.07;3.67;;;17.40;34.00;;;;;;5051011;28;20211;-80
2021/10/03 05:13:45;;;;;;;4.10;3.80;;;17.50;32.80;;;;;;5049073;28;21172;-79
2021/10/03 05:16:10;;;;;;;4.30;4.00;;;17.50;34.00;;;;;;5048825;28;20560;-79
2021/10/03 05:18:36;;;;;;;4.33;3.93;;;17.50;34.20;;;;;;5065937;28;20176;-80
2021/10/03 05:21:05;;;;;;;4.00;3.70;;;17.50;34.00;;;;;;5052119;28;20255;-86
2021/10/03 05:23:32;;;;;;;3.80;3.50;;;17.50;33.40;;;;;;5050723;28;20191;-86
2021/10/03 05:25:58;;;;;;;4.27;3.97;;;17.50;34.40;;;;;;5067198;28;20411;-86
2021/10/03 05:28:24;;;;;;;4.27;3.90;;;17.50;34.00;;;;;;5068029;28;20777;-86
2021/10/03 05:30:50;;;;;;;4.03;3.73;;;17.50;34.30;;;;;;5068168;28;20461;-86
2021/10/03 05:33:15;;;;;;;4.20;4.00;;;17.50;34.00;;;;;;5068081;28;20182;-86
2021/10/03 05:35:41;;;;;;;5.50;4.23;;;17.50;34.10;;;;;;5052906;28;20165;-86
2021/10/03 05:38:07;;;;;;;4.40;4.00;;;17.50;34.10;;;;;;5067792;28;20172;-86
2021/10/03 05:40:33;;;;;;;5.20;4.70;;;17.40;34.40;;;;;;5067215;28;20464;-86
2021/10/03 05:43:00;;;;;;;4.03;3.73;;;17.40;35.10;;;;;;5067761;28;20415;-85
2021/10/03 05:45:26;;;;;;;4.23;3.93;;;17.40;33.50;;;;;;5068045;28;20941;-86
2021/10/03 05:47:52;;;;;;;4.20;3.90;;;17.40;34.60;;;;;;5067806;28;20484;-85
2021/10/03 05:50:18;;;;;;;3.90;3.60;;;17.40;34.40;;;;;;5051217;28;20993;-86
2021/10/03 05:52:43;;;;;;;3.93;3.63;;;17.40;33.80;;;;;;5067685;28;20411;-85
2021/10/03 05:55:09;;;;;;;4.40;4.00;;;17.50;35.40;;;;;;5067771;28;20168;-85
2021/10/03 05:57:35;;;;;;;4.67;4.37;;;17.40;34.30;;;;;;5067525;28;20184;-85
2021/10/03 06:00:00;;;;;;;5.47;4.73;;;17.30;34.90;;;;;;5067851;28;20226;-85
2021/10/03 06:02:26;;;;;;;4.23;3.93;;;17.40;34.50;;;;;;5067611;28;20180;-85
2021/10/03 06:04:52;;;;;;;5.20;4.80;;;17.40;34.40;;;;;;5067847;28;20266;-85
2021/10/03 06:07:17;;;;;;;4.30;4.00;;;17.40;35.60;;;;;;5067626;28;20545;-86
2021/10/03 06:09:44;;;;;;;4.37;3.97;;;17.30;34.00;;;;;;5069050;28;20196;-87
2021/10/03 06:12:10;;;;;;;4.80;4.40;;;17.40;33.70;;;;;;5068073;28;20567;-86
2021/10/03 06:14:36;;;;;;;5.23;4.83;;;17.40;34.80;;;;;;5067917;28;20414;-86
2021/10/03 06:17:02;;;;;;;3.80;3.50;;;17.40;34.00;;;;;;5067589;28;20179;-86
2021/10/03 06:19:27;;;;;;;4.82;4.43;;;17.40;33.80;;;;;;5066729;28;20408;-86
2021/10/03 06:21:54;;;;;;;4.50;4.20;;;17.40;35.10;;;;;;5067628;28;20176;-85
2021/10/03 06:24:22;;;;;;;4.00;3.70;;;17.40;35.00;;;;;;5067443;28;20183;-86
2021/10/03 06:26:48;;;;;;;3.93;3.63;;;17.40;34.40;;;;;;5067288;28;20441;-86
2021/10/03 06:29:15;;;;;;;4.17;3.77;;;17.50;33.60;;;;;;5067297;28;20457;-87
2021/10/03 06:31:41;;;;;;;3.27;3.07;;;17.50;33.40;;;;;;5067837;28;20465;-86
2021/10/03 06:34:07;;;;;;;3.70;3.40;;;17.60;32.50;;;;;;5067441;28;20415;-86
2021/10/03 06:36:32;;;;;;;4.00;3.70;;;17.60;33.80;;;;;;5067360;28;20172;-86
2021/10/03 06:38:58;;;;;;;3.63;3.43;;;17.60;32.80;;;;;;5067253;28;20326;-86
2021/10/03 06:41:24;;;;;;;3.80;3.50;;;17.60;33.70;;;;;;5067294;28;20415;-86
2021/10/03 06:43:50;;;;;;;5.10;4.70;;;17.70;33.10;;;;;;5067191;28;20187;-86
2021/10/03 06:46:16;;;;;;;5.07;4.57;;;17.70;33.30;;;;;;5067273;28;20910;-86
2021/10/03 06:48:42;;;;;;;3.90;3.50;;;17.70;33.10;;;;;;5066979;28;20425;-86
2021/10/03 06:51:08;;;;;;;4.30;4.00;;;17.90;31.10;;;;;;5067756;28;20176;-85
2021/10/03 06:53:34;;;;;;;4.37;4.07;;;17.90;32.40;;;;;;5055828;28;20164;-86
2021/10/03 06:56:01;;;;;;;3.97;3.67;;;18.00;31.40;;;;;;5071283;28;20438;-86
2021/10/03 06:58:27;;;;;;;3.73;3.53;;;18.00;32.20;;;;;;5070900;28;20918;-86
2021/10/03 07:00:53;;;;;;;3.70;3.50;;;18.00;33.20;;;;;;5071257;28;20411;-86
2021/10/03 07:03:19;;;;;;;3.53;3.33;;;17.90;33.10;;;;;;5071367;28;20425;-87
2021/10/03 07:05:44;;;;;;;3.30;3.10;;;18.00;31.10;;;;;;5072591;28;20623;-85
2021/10/03 07:08:12;;;;;;;3.50;3.20;;;18.10;31.60;;;;;;5076026;28;20204;-87
2021/10/03 07:10:38;;;;;;;3.50;3.20;;;18.10;32.30;;;;;;5073318;28;20287;-84
2021/10/03 07:13:05;;;;;;;5.13;3.00;;;18.10;31.80;;;;;;5071917;28;20410;-87
2021/10/03 07:15:32;;;;;;;3.40;3.10;;;18.10;31.20;;;;;;5072510;28;20415;-87
2021/10/03 07:17:57;;;;;;;4.17;3.80;;;18.10;32.40;;;;;;5057258;28;20910;-86
2021/10/03 07:20:24;;;;;;;4.10;3.80;;;18.20;32.20;;;;;;5072789;28;20421;-84
2021/10/03 07:22:50;;;;;;;3.77;3.57;;;18.20;32.70;;;;;;5056568;28;20172;-85
2021/10/03 07:25:15;;;;;;;3.60;3.37;;;18.10;32.50;;;;;;5071228;28;20971;-84
2021/10/03 07:27:42;;;;;;;4.13;3.37;;;18.10;32.40;;;;;;5070932;28;20191;-85
2021/10/03 07:30:08;;;;;;;3.53;3.23;;;18.20;31.90;;;;;;5069185;28;20264;-85
2021/10/03 07:32:33;;;;;;;3.37;3.17;;;18.20;32.20;;;;;;5055559;28;20426;-85
2021/10/03 07:34:59;;;;;;;3.07;2.87;;;18.20;33.00;;;;;;5054584;28;20184;-84
2021/10/03 07:37:25;;;;;;;3.50;3.20;;;18.20;32.70;;;;;;5054194;28;20659;-84
2021/10/03 07:39:50;;;;;;;5.97;3.87;;;18.30;32.50;;;;;;5054243;28;20253;-84
2021/10/03 07:42:16;;;;;;;4.13;3.73;;;18.30;32.60;;;;;;5070255;28;20186;-84
2021/10/03 07:44:41;;;;;;;3.60;3.30;;;18.30;31.70;;;;;;5052867;28;20291;-84
2021/10/03 07:47:07;;;;;;;3.17;2.97;;;18.30;32.60;;;;;;5048940;28;20183;-84
2021/10/03 07:49:33;;;;;;;3.47;3.20;;;18.40;32.50;;;;;;5046132;28;20197;-85
2021/10/03 07:51:58;;;;;;;3.03;2.83;;;18.40;31.10;;;;;;5052830;28;20179;-84
2021/10/03 07:54:24;;;;;;;2.50;2.40;;;18.50;31.40;;;;;;5053023;28;20389;-81
2021/10/03 07:56:50;;;;;;;3.23;2.93;;;18.50;31.10;;;;;;5050743;28;20633;-82
2021/10/03 07:59:15;;;;;;;3.63;3.13;;;18.60;32.20;;;;;;5041697;28;20176;-82
2021/10/03 08:01:41;;;;;;;3.10;2.90;;;18.60;31.20;;;;;;5052588;28;20582;-81
2021/10/03 08:04:07;;;;;;;3.50;3.30;;;18.60;31.40;;;;;;5051356;28;20602;-81
2021/10/03 08:06:33;;;;;;;4.10;3.80;;;18.60;31.50;;;;;;5052431;28;20263;-81
2021/10/03 08:08:59;;;;;;;4.90;4.50;;;18.60;31.70;;;;;;5052266;28;20204;-81
2021/10/03 08:11:25;;;;;;;5.60;3.87;;;18.60;31.40;;;;;;5052767;28;20186;-81
2021/10/03 08:13:51;;;;;;;3.40;3.20;;;18.60;31.90;;;;;;5052977;28;20421;-81
2021/10/03 08:16:21;;;;;;;4.30;3.50;;;18.60;32.70;;;;;;5052553;28;20433;-81
2021/10/03 08:18:47;;;;;;;4.13;3.73;;;18.70;32.00;;;;;;5036427;28;20429;-81
2021/10/03 08:21:13;;;;;;;3.80;3.50;;;18.70;32.80;;;;;;5052500;28;20770;-81
2021/10/03 08:23:39;;;;;;;3.63;3.33;;;18.80;32.60;;;;;;5051715;28;20439;-81
2021/10/03 08:26:05;;;;;;;3.83;2.83;;;18.80;33.00;;;;;;5049135;28;20597;-81
2021/10/03 08:28:31;;;;;;;3.13;2.93;;;18.90;31.50;;;;;;5037313;28;20193;-81
2021/10/03 08:30:56;;;;;;;3.57;3.27;;;18.80;32.50;;;;;;5032490;28;20831;-81
2021/10/03 08:33:22;;;;;;;3.90;3.60;;;18.80;33.10;;;;;;5042732;28;20191;-81
2021/10/03 08:35:48;;;;;;;4.33;3.50;;;18.80;33.30;;;;;;5047203;28;20179;-81
2021/10/03 08:38:14;;;;;;;4.13;3.50;;;18.90;33.50;;;;;;5050652;28;20176;-81
2021/10/03 08:40:39;;;;;;;4.30;3.50;;;18.90;32.50;;;;;;5068191;28;20267;-81
2021/10/03 08:43:08;;;;;;;4.20;3.83;;;18.80;33.50;;;;;;5068788;28;20643;-81
2021/10/03 08:45:41;;;;;;;3.47;3.27;;;18.90;32.50;;;;;;5068574;28;20191;-81
2021/10/03 08:48:09;;;;;;;4.03;3.20;;;18.90;33.30;;;;;;5051849;28;20446;-81
2021/10/03 08:50:35;;;;;;;3.90;3.50;;;18.90;32.40;;;;;;5051974;28;20469;-81
2021/10/03 08:53:00;;;;;;;3.60;3.30;;;19.00;31.60;;;;;;5052033;28;20812;-81
2021/10/03 08:55:26;;;;;;;5.40;3.37;;;19.10;31.50;;;;;;5052292;28;20411;-82
2021/10/03 08:57:52;;;;;;;3.17;2.97;;;19.10;33.00;;;;;;5051799;28;20172;-79
2021/10/03 09:00:22;;;;;;;3.40;3.10;;;19.10;32.70;;;;;;5052113;28;20212;-80
2021/10/03 09:03:01;;;;;;;3.20;2.93;;;19.00;32.40;;;;;;5051813;28;20418;-80
2021/10/03 09:05:29;;;;;;;3.17;2.93;;;19.10;32.80;;;;;;5051990;28;20410;-80
2021/10/03 09:08:19;;;;;;;5.83;4.23;;;19.10;32.40;;;;;;5052853;28;20477;-79
2021/10/03 09:10:53;;;;;;;4.90;3.50;;;19.10;33.50;;;;;;5067385;28;20553;-79
2021/10/03 09:13:22;;;;;;;2.93;2.57;;;19.20;33.60;;;;;;5042166;28;20470;-80
2021/10/03 09:16:05;;;;;;;3.97;3.63;;;19.20;32.50;;;;;;5059953;28;20418;-78
2021/10/03 09:18:41;;;;;;;5.60;4.20;;;19.30;33.40;;;;;;5051097;28;20414;-80
2021/10/03 09:21:07;;;;;;;3.83;3.63;;;19.30;34.20;;;;;;5050344;28;20895;-79
2021/10/03 09:23:33;;;;;;;3.17;2.97;;;19.20;33.00;;;;;;5035597;28;20422;-79
2021/10/03 09:25:59;;;;;;;3.03;2.80;;;19.20;34.40;;;;;;5039102;28;20398;-79
2021/10/03 09:28:54;;;;;;;4.00;3.70;;;19.20;33.10;;;;;;5037879;28;20216;-78
2021/10/03 09:31:21;;;;;;;3.83;2.87;;;19.30;33.00;;;;;;5029565;28;20196;-77
2021/10/03 09:33:58;;;;;;;3.70;3.40;;;19.20;34.10;;;;;;5031583;28;20404;-80
2021/10/03 09:36:25;;;;;;;3.33;3.03;;;19.20;34.50;;;;;;5040657;28;20498;-81
2021/10/03 09:38:54;;;;;;;4.00;3.57;;;19.20;35.10;;;;;;5041332;28;20411;-81
2021/10/03 09:41:24;;;;;;;4.93;3.40;;;19.20;35.60;;;;;;5043905;28;20861;-81
2021/10/03 09:43:58;;;;;;;3.30;3.10;;;19.20;35.30;;;;;;5032311;28;20399;-81
2021/10/03 09:46:50;;;;;;;6.83;4.90;;;19.20;34.80;;;;;;5031030;28;20446;-81
2021/10/03 09:49:15;;;;;;;3.73;3.43;;;19.20;34.40;;;;;;5030782;28;20471;-81
2021/10/03 09:51:47;;;;;;;3.33;3.03;;;19.20;35.20;;;;;;5031071;28;20465;-81
2021/10/03 09:54:14;;;;;;;4.27;3.80;;;19.20;35.40;;;;;;5047910;28;20184;-83
2021/10/03 09:56:40;;;;;;;3.27;3.07;;;19.20;35.80;;;;;;5044523;28;20419;-80
2021/10/03 09:59:07;;;;;;;3.30;3.10;;;19.20;36.10;;;;;;5041206;28;20422;-81
2021/10/03 10:01:35;;;;;;;4.07;3.70;;;19.20;36.00;;;;;;5040897;28;20173;-81
2021/10/03 10:04:06;;;;;;;4.10;3.77;;;19.10;35.70;;;;;;5042329;28;20421;-82
2021/10/03 10:06:32;;;;;;;3.57;2.93;;;19.10;36.00;;;;;;5045677;28;20851;-81
2021/10/03 10:09:03;;;;;;;3.60;3.30;;;19.20;35.90;;;;;;5049412;28;20430;-79
2021/10/03 10:11:40;;;;;;;3.90;3.60;;;19.10;37.10;;;;;;5046819;28;20442;-80
2021/10/03 10:14:07;;;;;;;3.73;3.33;;;19.10;36.10;;;;;;5049584;28;20832;-80
2021/10/03 10:16:42;;;;;;;4.17;3.80;;;19.10;37.20;;;;;;5048818;28;20429;-81
2021/10/03 10:19:32;;;;;;;3.63;3.33;;;19.20;37.40;;;;;;5048941;28;20822;-80
2021/10/03 10:22:20;;;;;;;6.50;3.90;;;19.20;37.40;;;;;;5051171;28;20429;-81
2021/10/03 10:24:53;;;;;;;4.70;4.20;;;19.20;37.90;;;;;;5045921;28;20418;-81
2021/10/03 10:27:18;;;;;;;5.13;4.50;;;19.30;37.70;;;;;;5048311;28;20450;-80
2021/10/03 10:29:52;;;;;;;4.23;3.83;;;19.30;36.20;;;;;;5049962;28;20771;-82
2021/10/03 10:32:22;;;;;;;4.00;3.70;;;19.40;36.40;;;;;;5049672;28;20188;-81
2021/10/03 10:35:10;;;;;;;4.00;3.70;;;19.50;37.30;;;;;;5049030;28;20430;-85
2021/10/03 10:37:53;;;;;;;3.93;3.63;;;19.50;37.60;;;;;;5048248;28;20462;-87
2021/10/03 10:40:24;;;;;;;3.00;2.80;;;19.60;36.40;;;;;;5050553;28;20433;-84
2021/10/03 10:43:03;;;;;;;3.80;3.50;;;19.60;36.20;;;;;;5046967;28;20433;-83
2021/10/03 10:45:30;;;;;;;3.60;3.27;;;19.60;35.80;;;;;;5058254;28;20923;-86
2021/10/03 10:48:13;;;;;;;3.10;2.90;;;19.60;35.80;;;;;;5055941;28;20434;-85
2021/10/03 10:51:10;;;;;;;3.30;3.00;;;19.70;36.80;;;;;;5053574;28;21034;-85
2021/10/03 10:53:36;;;;;;;3.40;3.20;;;19.70;34.50;;;;;;5064772;28;20411;-87
2021/10/03 10:56:16;;;;;;;3.77;3.47;;;19.70;35.40;;;;;;5068104;28;20421;-84
2021/10/03 10:58:51;;;;;;;3.87;3.57;;;19.70;36.30;;;;;;5068164;28;20172;-83
2021/10/03 11:01:19;;;;;;;6.87;3.70;;;19.80;36.00;;;;;;5052573;28;20402;-83
2021/10/03 11:03:54;;;;;;;4.00;3.70;;;19.70;37.20;;;;;;5067934;28;20418;-84
2021/10/03 11:06:22;;;;;;;3.73;3.43;;;19.70;37.30;;;;;;5068017;28;20564;-84
2021/10/03 11:08:59;;;;;;;3.80;3.50;;;19.70;37.30;;;;;;5052462;28;20461;-84
2021/10/03 11:11:35;;;;;;;3.40;3.10;;;19.70;38.60;;;;;;5068690;28;20418;-84
2021/10/03 11:14:09;;;;;;;3.97;3.67;;;19.70;38.00;;;;;;5068479;28;20563;-84
2021/10/03 11:16:46;;;;;;;5.00;4.60;;;19.60;37.70;;;;;;5068351;28;20415;-84
2021/10/03 11:19:43;;;;;;;5.90;3.80;;;19.60;38.50;;;;;;5068608;28;20421;-84
2021/10/03 11:22:21;;;;;;;5.67;3.97;;;19.50;38.50;;;;;;5050205;28;20418;-84
2021/10/03 11:24:52;;;;;;;4.23;3.90;;;19.50;38.40;;;;;;5067479;28;20857;-84
2021/10/03 11:27:26;;;;;;;3.80;3.50;;;19.60;38.30;;;;;;5067362;28;20453;-84
2021/10/03 11:29:55;;;;;;;4.67;4.20;;;19.60;39.10;;;;;;5067351;28;20537;-84
2021/10/03 11:32:38;;;;;;;3.93;3.63;;;19.60;37.90;;;;;;5067609;28;20413;-84
2021/10/03 11:35:11;;;;;;;4.10;3.70;;;19.60;38.90;;;;;;5051137;28;20414;-84
2021/10/03 11:37:40;;;;;;;6.10;5.50;;;19.60;39.40;;;;;;5067271;28;20839;-84
2021/10/03 11:40:07;;;;;;;4.17;3.63;;;19.70;38.50;;;;;;5070453;28;20918;-84
2021/10/03 11:42:38;;;;;;;3.50;3.20;;;19.70;39.00;;;;;;5070835;28;20442;-84
2021/10/03 11:45:17;;;;;;;4.13;3.83;;;19.60;39.90;;;;;;5070841;28;20423;-84
2021/10/03 11:47:53;;;;;;;7.43;3.40;;;19.70;39.70;;;;;;5070507;28;20789;-84
2021/10/03 11:50:23;;;;;;;3.23;3.03;;;19.60;39.90;;;;;;5070575;28;20461;-84
2021/10/03 11:53:10;;;;;;;4.43;4.00;;;19.60;39.90;;;;;;5070880;28;20949;-84
2021/10/03 11:55:38;;;;;;;4.17;3.50;;;19.60;40.00;;;;;;5071099;28;20773;-84
2021/10/03 11:58:14;;;;;;;3.87;3.60;;;19.60;40.80;;;;;;5055618;28;20406;-84
2021/10/03 12:01:01;;;;;;;4.80;3.57;;;19.60;41.30;;;;;;5071742;28;20402;-84
2021/10/03 12:03:30;;;;;;;5.43;4.93;;;19.60;41.70;;;;;;5059007;28;20755;-84
2021/10/03 12:05:59;;;;;;;4.77;4.10;;;19.60;41.80;;;;;;5055526;28;20406;-84
2021/10/03 12:11:51;;;;;;;6.80;5.67;;;19.60;41.10;;;;;;5129600;22;20491;-82
2021/10/03 12:14:16;;;;;;;7.70;7.00;;;19.70;41.30;;;;;;5059393;22;20509;-83
2021/10/03 12:16:56;;;;;;;6.07;5.07;;;19.70;40.80;;;;;;5054193;28;20415;-83
2021/10/03 12:19:32;;;;;;;8.27;6.00;;;19.80;41.80;;;;;;5054536;28;20172;-83
2021/10/03 12:22:05;;;;;;;8.27;6.83;;;19.70;40.80;;;;;;5053379;28;20410;-83
2021/10/03 12:24:33;;;;;;;5.70;5.20;;;19.80;41.30;;;;;;5053669;28;20429;-83
2021/10/03 12:26:58;;;;;;;57.70;46.13;;;19.80;41.70;;;;;;5053427;28;20455;-83
2021/10/03 12:29:27;;;;;;;12.10;10.77;;;19.80;40.40;;;;;;5053002;28;20501;-83
2021/10/03 12:32:00;;;;;;;6.50;5.90;;;20.00;40.30;;;;;;5053616;28;20172;-84
2021/10/03 12:34:33;;;;;;;5.57;4.30;;;20.00;40.70;;;;;;5053214;28;20411;-83
2021/10/03 12:37:01;;;;;;;27.43;21.33;;;20.00;41.10;;;;;;5054464;28;20738;-82
2021/10/03 12:39:35;;;;;;;9.63;8.63;;;20.00;41.90;;;;;;5053217;28;20509;-83
2021/10/03 12:42:08;;;;;;;6.77;6.13;;;20.00;40.90;;;;;;5053030;28;20417;-83
2021/10/03 12:44:34;;;;;;;4.00;3.63;;;20.00;40.90;;;;;;5053186;28;20447;-84
2021/10/03 12:47:04;;;;;;;9.50;7.73;;;20.00;41.20;;;;;;5053033;28;20995;-84
2021/10/03 12:49:35;;;;;;;5.27;4.73;;;20.00;40.80;;;;;;5052815;28;20508;-84
2021/10/03 12:52:01;;;;;;;5.87;5.20;;;20.00;42.50;;;;;;5053146;28;20418;-84
2021/10/03 12:54:27;;;;;;;10.10;9.10;;;20.10;41.40;;;;;;5052556;28;20415;-84